Time;durP1;ratioP1;P1;durP2;ratioP2;P2;SDS_P1;SDS_P2;PMS_P1;PMS_P2;Temp;Humidity;BMP_temperature;BMP_pressure;BME280_temperature;BME280_humidity;BME280_pressure;Samples;Min_cycle;Max_cycle;Signal;HPM_P1;HPM_P2
2023/07/30 00:02:02;;;;;;;7.07;3.78;;;;;;;22.88;51.59;101453.00;5073207;28;20060;-44
2023/07/30 00:04:28;;;;;;;7.10;3.63;;;;;;;23.05;50.82;101443.69;5073299;28;20036;-45
2023/07/30 00:06:54;;;;;;;9.73;4.00;;;;;;;23.02;51.40;101445.03;5073556;28;20040;-43
2023/07/30 00:09:21;;;;;;;11.80;4.38;;;;;;;22.90;50.43;101448.06;5073546;28;20033;-45
2023/07/30 00:11:47;;;;;;;8.15;4.15;;;;;;;22.86;50.76;101444.19;5073350;28;20024;-44
2023/07/30 00:14:13;;;;;;;10.13;3.80;;;;;;;22.69;51.43;101449.13;5073367;28;20028;-46
2023/07/30 00:16:39;;;;;;;7.75;3.95;;;;;;;22.81;51.03;101448.84;5073362;28;20063;-44
2023/07/30 00:19:06;;;;;;;6.75;3.45;;;;;;;22.64;51.15;101454.56;5056055;28;20032;-44
2023/07/30 00:21:32;;;;;;;7.10;3.97;;;;;;;22.63;51.04;101461.13;5053151;28;20035;-43
2023/07/30 00:23:59;;;;;;;9.05;3.67;;;;;;;22.28;52.42;101442.81;5053270;28;20024;-42
2023/07/30 00:26:26;;;;;;;10.85;3.80;;;;;;;21.84;53.72;101441.28;5068772;28;20039;-43
2023/07/30 00:28:52;;;;;;;8.55;4.13;;;;;;;22.03;53.12;101435.34;5073104;28;20040;-44
2023/07/30 00:31:18;;;;;;;10.25;3.80;;;;;;;22.26;53.59;101425.88;5072923;28;20029;-44
2023/07/30 00:33:44;;;;;;;7.90;3.88;;;;;;;22.40;52.07;101419.63;5073022;28;20037;-43
2023/07/30 00:36:11;;;;;;;8.15;3.70;;;;;;;22.34;51.82;101417.19;5070718;28;20036;-44
2023/07/30 00:38:37;;;;;;;9.32;4.18;;;;;;;22.26;52.04;101429.41;5063270;28;20051;-44
2023/07/30 00:41:03;;;;;;;7.35;3.65;;;;;;;21.93;52.38;101419.78;5063043;28;20489;-44
2023/07/30 00:43:29;;;;;;;9.23;4.07;;;;;;;21.77;53.15;101426.28;5073042;28;20032;-46
2023/07/30 00:45:56;;;;;;;7.10;3.65;;;;;;;21.79;54.03;101422.19;5073163;28;20071;-44
2023/07/30 00:48:22;;;;;;;11.45;4.57;;;;;;;21.98;53.10;101429.88;5072642;28;20060;-43
2023/07/30 00:50:49;;;;;;;8.65;4.28;;;;;;;22.32;53.30;101430.25;5072200;28;20103;-44
2023/07/30 00:53:16;;;;;;;8.73;4.28;;;;;;;22.36;51.37;101432.16;5072229;28;20028;-44
2023/07/30 00:55:43;;;;;;;7.90;4.03;;;;;;;22.04;52.89;101429.63;5072719;28;20021;-44
2023/07/30 00:58:11;;;;;;;14.80;5.45;;;;;;;22.14;52.84;101428.84;5072414;28;20028;-44
2023/07/30 01:00:37;;;;;;;11.27;3.67;;;;;;;21.96;52.68;101426.59;5072953;28;20035;-44
2023/07/30 01:03:04;;;;;;;10.93;4.10;;;;;;;21.49;54.01;101428.31;5072899;28;20065;-42
2023/07/30 01:05:31;;;;;;;16.27;4.32;;;;;;;21.20;56.49;101427.00;5072801;28;20131;-43
2023/07/30 01:07:57;;;;;;;13.27;4.70;;;;;;;20.85;56.49;101430.31;5072688;28;20103;-43
2023/07/30 01:10:24;;;;;;;12.35;4.65;;;;;;;20.99;57.08;101428.78;5072574;28;20020;-43
2023/07/30 01:12:52;;;;;;;10.77;4.40;;;;;;;20.87;57.20;101430.84;5072718;28;20040;-43
2023/07/30 01:15:18;;;;;;;11.30;4.35;;;;;;;20.96;58.09;101437.47;5065985;28;20040;-44
2023/07/30 01:17:45;;;;;;;15.57;5.25;;;;;;;20.97;57.29;101429.03;5072101;28;20033;-44
2023/07/30 01:20:12;;;;;;;9.60;4.40;;;;;;;21.09;57.92;101432.38;5071788;28;20120;-43
2023/07/30 01:22:38;;;;;;;13.85;5.00;;;;;;;21.19;56.75;101431.63;5053133;28;20025;-45
2023/07/30 01:25:05;;;;;;;17.23;4.72;;;;;;;21.25;56.23;101425.13;5051934;28;20080;-44
2023/07/30 01:27:37;;;;;;;11.00;4.50;;;;;;;21.29;56.42;101426.28;5052139;28;20471;-44
2023/07/30 01:30:12;;;;;;;9.35;4.30;;;;;;;21.34;56.76;101428.22;5051292;28;20056;-44
2023/07/30 01:32:40;;;;;;;11.63;4.15;;;;;;;21.05;56.49;101420.41;5066576;28;20033;-43
2023/07/30 01:35:08;;;;;;;16.27;4.95;;;;;;;21.06;56.75;101427.47;5070325;28;20024;-43
2023/07/30 01:37:36;;;;;;;9.70;4.80;;;;;;;21.17;56.70;101424.84;5068001;28;20119;-43
2023/07/30 01:40:03;;;;;;;11.13;4.80;;;;;;;21.36;56.31;101426.06;5071759;28;20428;-45
2023/07/30 01:42:30;;;;;;;10.50;4.22;;;;;;;21.34;55.90;101422.78;5071240;28;20465;-44
2023/07/30 01:44:57;;;;;;;15.25;5.57;;;;;;;21.22;56.71;101409.34;5051782;28;20043;-44
2023/07/30 01:47:23;;;;;;;13.68;4.60;;;;;;;20.87;57.46;101414.53;5058980;28;20051;-43
2023/07/30 01:49:49;;;;;;;12.23;4.47;;;;;;;21.28;56.46;101419.19;5071797;28;20032;-43
2023/07/30 01:52:16;;;;;;;10.02;4.45;;;;;;;21.43;55.82;101423.09;5071729;28;20462;-43
2023/07/30 01:54:42;;;;;;;13.18;4.82;;;;;;;21.09;56.19;101413.31;5019727;28;20047;-45
2023/07/30 01:57:09;;;;;;;11.38;4.40;;;;;;;21.32;56.03;101414.03;5060287;28;20489;-44
2023/07/30 01:59:35;;;;;;;10.55;4.57;;;;;;;21.34;55.37;101428.22;5070992;28;20119;-44
2023/07/30 02:02:01;;;;;;;12.70;4.15;;;;;;;21.34;56.09;101423.59;5071249;28;20036;-43
2023/07/30 02:04:28;;;;;;;13.80;4.60;;;;;;;21.21;56.33;101424.03;5071316;28;20024;-44
2023/07/30 02:06:54;;;;;;;12.63;4.50;;;;;;;21.37;55.69;101422.25;5070016;28;20024;-43
2023/07/30 02:09:21;;;;;;;16.98;5.82;;;;;;;20.76;56.85;101417.16;5066412;28;20462;-44
2023/07/30 02:11:47;;;;;;;11.38;4.50;;;;;;;21.26;56.12;101418.59;5071078;28;20052;-42
2023/07/30 02:14:14;;;;;;;10.70;4.53;;;;;;;21.35;55.72;101419.78;5070287;28;20063;-43
2023/07/30 02:16:40;;;;;;;12.85;4.60;;;;;;;21.81;54.81;101430.91;5067808;28;20024;-43
2023/07/30 02:19:08;;;;;;;17.58;4.80;;;;;;;22.18;52.63;101419.06;5066904;28;20032;-44
2023/07/30 02:21:36;;;;;;;15.50;5.00;;;;;;;21.50;54.68;101420.97;5067727;28;20020;-44
2023/07/30 02:24:03;;;;;;;12.32;4.90;;;;;;;22.03;52.84;101416.25;5054010;28;20029;-43
2023/07/30 02:26:29;;;;;;;11.25;4.45;;;;;;;21.73;53.18;101414.25;5053796;28;20079;-44
2023/07/30 02:28:56;;;;;;;9.10;4.25;;;;;;;22.07;52.29;101422.81;5071526;28;20540;-42
2023/07/30 02:31:22;;;;;;;12.75;4.38;;;;;;;21.77;52.98;101416.19;5071193;28;20075;-44
2023/07/30 02:33:48;;;;;;;9.63;5.03;;;;;;;21.69;54.00;101410.41;5071089;28;20035;-43
2023/07/30 02:36:14;;;;;;;10.93;4.93;;;;;;;21.53;54.53;101418.50;5071325;28;20039;-42
2023/07/30 02:38:41;;;;;;;12.48;4.80;;;;;;;21.39;54.89;101430.97;5071514;28;20024;-42
2023/07/30 02:41:07;;;;;;;12.50;5.20;;;;;;;21.45;54.84;101429.94;5072943;28;20021;-42
2023/07/30 02:43:33;;;;;;;13.88;5.07;;;;;;;21.18;55.82;101424.56;5075580;28;20027;-42
2023/07/30 02:46:00;;;;;;;16.55;5.20;;;;;;;20.77;56.76;101429.72;5060303;28;20029;-43
2023/07/30 02:48:27;;;;;;;12.40;4.90;;;;;;;20.52;57.76;101422.13;5055470;28;20021;-42
2023/07/30 02:50:55;;;;;;;14.45;5.35;;;;;;;20.22;58.63;101433.53;5037138;28;20029;-43
2023/07/30 02:53:22;;;;;;;13.05;4.63;;;;;;;20.15;59.46;101432.06;5057620;28;20035;-43
2023/07/30 02:55:48;;;;;;;12.98;4.88;;;;;;;19.88;60.31;101426.63;5075291;28;20090;-44
2023/07/30 02:58:14;;;;;;;13.88;4.95;;;;;;;19.49;61.29;101419.31;5061527;28;20422;-42
2023/07/30 03:00:41;;;;;;;15.73;5.28;;;;;;;19.35;62.03;101431.59;5054396;28;20108;-43
2023/07/30 03:03:08;;;;;;;15.00;5.03;;;;;;;18.89;63.50;101413.81;5056927;28;20464;-43
2023/07/30 03:05:34;;;;;;;15.10;5.50;;;;;;;18.79;64.34;101422.59;5074343;28;20118;-45
2023/07/30 03:08:01;;;;;;;11.82;4.80;;;;;;;18.83;64.98;101436.50;5073892;28;20055;-44
2023/07/30 03:10:28;;;;;;;12.07;4.97;;;;;;;18.70;65.08;101432.19;5074242;28;20463;-43
2023/07/30 03:12:54;;;;;;;15.57;5.82;;;;;;;18.48;65.59;101427.47;5074284;28;20039;-43
2023/07/30 03:15:21;;;;;;;14.20;5.32;;;;;;;18.55;65.50;101430.03;5073337;28;20071;-44
2023/07/30 03:17:47;;;;;;;10.43;5.25;;;;;;;18.62;65.14;101430.69;5074566;28;20031;-43
2023/07/30 03:20:13;;;;;;;14.75;5.80;;;;;;;18.59;65.42;101430.34;5074167;28;20025;-43
2023/07/30 03:22:39;;;;;;;17.48;5.07;;;;;;;18.58;65.54;101429.53;5074485;28;20029;-44
2023/07/30 03:25:06;;;;;;;16.85;6.13;;;;;;;18.29;67.09;101430.66;5074342;28;20032;-43
2023/07/30 03:27:33;;;;;;;16.80;5.53;;;;;;;17.98;68.36;101440.88;5074337;28;20411;-43
2023/07/30 03:29:59;;;;;;;17.27;6.20;;;;;;;17.84;69.08;101445.75;5073730;28;20432;-44
2023/07/30 03:32:26;;;;;;;14.20;6.55;;;;;;;17.67;70.40;101445.66;5073924;28;20382;-43
2023/07/30 03:34:52;;;;;;;17.25;6.40;;;;;;;17.62;70.50;101442.84;5073805;28;20035;-42
2023/07/30 03:37:18;;;;;;;18.20;6.10;;;;;;;17.68;70.48;101447.28;5073951;28;20047;-44
2023/07/30 03:39:45;;;;;;;17.83;6.13;;;;;;;17.47;71.29;101460.63;5074116;28;20086;-43
2023/07/30 03:42:12;;;;;;;12.13;6.38;;;;;;;17.54;71.39;101445.06;5073596;28;20111;-44
2023/07/30 03:44:38;;;;;;;14.43;6.35;;;;;;;17.40;71.76;101436.38;5056261;28;20029;-44
2023/07/30 03:47:05;;;;;;;14.25;6.30;;;;;;;17.39;71.60;101449.09;5073722;28;20025;-42
2023/07/30 03:49:31;;;;;;;14.60;6.03;;;;;;;17.29;71.79;101454.28;5073911;28;20036;-42
2023/07/30 03:51:58;;;;;;;19.75;6.43;;;;;;;17.23;72.07;101447.09;5066795;28;20052;-41
2023/07/30 03:54:25;;;;;;;20.88;6.25;;;;;;;17.04;72.85;101450.97;5073704;28;20033;-42
2023/07/30 03:56:51;;;;;;;18.20;7.15;;;;;;;16.62;75.36;101449.09;5073848;28;20055;-41
2023/07/30 03:59:18;;;;;;;15.27;7.25;;;;;;;16.70;75.25;101453.34;5070054;28;20028;-41
2023/07/30 04:01:45;;;;;;;14.35;6.82;;;;;;;16.46;76.02;101447.06;5055214;28;20371;-43
2023/07/30 04:04:11;;;;;;;13.27;6.00;;;;;;;16.55;76.07;101450.28;5073020;28;20028;-42
2023/07/30 04:06:38;;;;;;;20.13;7.35;;;;;;;16.47;76.10;101456.81;5073704;28;20398;-41
2023/07/30 04:09:04;;;;;;;15.88;7.72;;;;;;;16.40;76.30;101450.69;5071709;28;20033;-43
2023/07/30 04:11:31;;;;;;;15.25;6.97;;;;;;;16.39;76.43;101453.63;5073205;28;20522;-43
2023/07/30 04:13:58;;;;;;;15.40;6.03;;;;;;;16.36;76.48;101450.31;5073470;28;20113;-43
2023/07/30 04:16:24;;;;;;;13.43;6.32;;;;;;;16.13;77.27;101462.91;5055337;28;20021;-42
2023/07/30 04:18:50;;;;;;;16.05;6.10;;;;;;;16.21;77.11;101459.88;5056982;28;20017;-44
2023/07/30 04:21:17;;;;;;;13.90;6.30;;;;;;;16.33;76.89;101449.97;5053319;28;20025;-41
2023/07/30 04:23:43;;;;;;;18.00;6.72;;;;;;;16.26;76.84;101454.63;5053861;28;20471;-42
2023/07/30 04:26:10;;;;;;;13.05;5.75;;;;;;;16.17;77.09;101462.22;5062472;28;20027;-43
2023/07/30 04:28:36;;;;;;;14.55;6.10;;;;;;;15.98;78.35;101453.31;5073579;28;20044;-42
2023/07/30 04:31:03;;;;;;;12.25;5.78;;;;;;;16.03;78.29;101466.13;5072767;28;20036;-42
2023/07/30 04:33:29;;;;;;;11.90;6.25;;;;;;;16.19;77.53;101462.00;5072737;28;20425;-43
2023/07/30 04:35:55;;;;;;;14.35;6.00;;;;;;;16.04;79.25;101457.78;5072607;28;20459;-41
2023/07/30 04:38:21;;;;;;;11.57;6.07;;;;;;;16.01;79.41;101463.66;5073067;28;20032;-42
2023/07/30 04:40:48;;;;;;;18.55;6.32;;;;;;;16.17;79.31;101462.22;5070909;28;20073;-41
2023/07/30 04:43:14;;;;;;;18.92;6.70;;;;;;;16.21;79.38;101468.84;5072966;28;20473;-41
2023/07/30 04:45:40;;;;;;;10.93;6.30;;;;;;;16.28;79.51;101469.56;5072935;28;20086;-41
2023/07/30 04:48:07;;;;;;;15.43;7.07;;;;;;;16.19;80.07;101459.28;5072715;28;20158;-41
2023/07/30 04:50:33;;;;;;;14.63;7.65;;;;;;;16.18;79.36;101468.44;5072557;28;20462;-41
2023/07/30 04:53:00;;;;;;;17.98;7.72;;;;;;;16.16;79.47;101460.59;5060294;28;20048;-40
2023/07/30 04:55:26;;;;;;;14.90;7.07;;;;;;;16.21;79.35;101462.56;5052596;28;20025;-42
2023/07/30 04:57:52;;;;;;;16.40;7.20;;;;;;;16.03;79.71;101461.56;5052506;28;20028;-41
2023/07/30 05:00:19;;;;;;;19.48;7.22;;;;;;;15.94;79.71;101462.94;5052219;28;20025;-41
2023/07/30 05:02:45;;;;;;;14.95;6.22;;;;;;;15.86;80.07;101462.41;5052487;28;20029;-41
2023/07/30 05:05:11;;;;;;;14.45;6.30;;;;;;;15.85;80.05;101472.38;5065380;28;20040;-41
2023/07/30 05:07:37;;;;;;;15.60;8.20;;;;;;;15.67;81.79;101473.22;5072028;28;20377;-41
2023/07/30 05:10:06;;;;;;;12.43;6.50;;;;;;;15.62;82.62;101469.50;5070900;28;20783;-41
2023/07/30 05:12:32;;;;;;;17.05;7.05;;;;;;;15.48;82.76;101471.50;5072232;28;20021;-41
2023/07/30 05:14:59;;;;;;;16.80;6.82;;;;;;;15.61;81.97;101475.94;5072316;28;20029;-42
2023/07/30 05:17:25;;;;;;;53.65;34.13;;;;;;;15.49;82.59;101468.59;5072107;28;20113;-40
2023/07/30 05:19:51;;;;;;;32.22;18.75;;;;;;;15.40;82.94;101474.50;5059488;28;20029;-41
2023/07/30 05:22:18;;;;;;;15.18;6.88;;;;;;;15.38;82.94;101479.25;5056668;28;20029;-40
2023/07/30 05:24:44;;;;;;;16.02;7.03;;;;;;;15.32;84.09;101486.38;5071924;28;20103;-40
2023/07/30 05:27:10;;;;;;;14.75;6.60;;;;;;;15.28;84.22;101491.41;5072144;28;20024;-40
2023/07/30 05:29:36;;;;;;;11.73;5.80;;;;;;;15.17;84.88;101488.59;5053988;28;20052;-41
2023/07/30 05:32:03;;;;;;;16.02;8.10;;;;;;;15.07;85.45;101494.50;5071427;28;20024;-43
2023/07/30 05:34:29;;;;;;;15.45;8.27;;;;;;;15.11;84.76;101486.78;5071875;28;20055;-40
2023/07/30 05:36:55;;;;;;;14.10;6.95;;;;;;;14.95;85.01;101486.28;5071411;28;20093;-40
2023/07/30 05:39:22;;;;;;;11.80;6.90;;;;;;;14.76;85.84;101485.38;5069939;28;20047;-40
2023/07/30 05:41:48;;;;;;;12.32;6.22;;;;;;;14.63;86.65;101490.03;5067569;28;20056;-41
2023/07/30 05:44:14;;;;;;;15.27;6.82;;;;;;;14.47;87.91;101485.97;5071883;28;20455;-40
2023/07/30 05:46:40;;;;;;;12.43;6.75;;;;;;;14.48;88.02;101484.94;5071761;28;20449;-41
2023/07/30 05:49:07;;;;;;;13.10;6.93;;;;;;;14.39;88.68;101489.72;5071674;28;20017;-42
2023/07/30 05:51:33;;;;;;;11.70;6.32;;;;;;;14.39;88.11;101486.22;5070827;28;20016;-42
2023/07/30 05:53:59;;;;;;;14.15;6.18;;;;;;;14.10;89.13;101487.56;5051554;28;20104;-43
2023/07/30 05:56:25;;;;;;;13.15;6.57;;;;;;;14.14;89.48;101492.31;5051707;28;20029;-42
2023/07/30 05:58:52;;;;;;;15.63;7.38;;;;;;;14.13;89.00;101482.59;5051605;28;20198;-42
2023/07/30 06:01:19;;;;;;;13.35;7.45;;;;;;;14.04;89.63;101488.41;5051168;28;20036;-41
2023/07/30 06:03:45;;;;;;;11.43;7.63;;;;;;;14.02;90.25;101485.13;5054876;28;20039;-41
2023/07/30 06:06:12;;;;;;;21.70;7.45;;;;;;;14.05;90.28;101485.53;5067894;28;20494;-41
2023/07/30 06:08:38;;;;;;;11.95;7.28;;;;;;;13.95;90.92;101493.22;5070834;28;20033;-42
2023/07/30 06:11:04;;;;;;;13.48;7.55;;;;;;;13.93;91.71;101495.28;5070944;28;20037;-42
2023/07/30 06:13:31;;;;;;;15.73;7.78;;;;;;;13.87;92.70;101488.88;5070679;28;20028;-42
2023/07/30 06:15:57;;;;;;;16.70;7.97;;;;;;;13.99;92.77;101487.22;5070815;28;20081;-42
2023/07/30 06:18:23;;;;;;;20.83;7.65;;;;;;;14.00;92.80;101488.88;5071264;28;20036;-43
2023/07/30 06:20:49;;;;;;;17.63;7.80;;;;;;;13.86;92.96;101486.41;5054609;28;20025;-43
2023/07/30 06:23:16;;;;;;;15.90;6.57;;;;;;;13.86;92.71;101481.03;5071292;28;20036;-42
2023/07/30 06:25:42;;;;;;;13.88;6.97;;;;;;;13.84;93.01;101483.13;5071286;28;20032;-42
2023/07/30 06:28:08;;;;;;;14.93;8.43;;;;;;;13.83;92.29;101485.00;5070998;28;20025;-44
2023/07/30 06:30:36;;;;;;;14.98;7.15;;;;;;;13.77;92.40;101491.22;5070965;28;20028;-41
2023/07/30 06:33:03;;;;;;;14.50;6.90;;;;;;;13.74;92.19;101491.63;5071110;28;20024;-44
2023/07/30 06:35:29;;;;;;;20.08;7.70;;;;;;;13.78;91.99;101500.94;5070627;28;20094;-42
2023/07/30 06:37:55;;;;;;;16.15;7.80;;;;;;;13.62;92.58;101496.00;5068682;28;20055;-41
2023/07/30 06:40:21;;;;;;;14.73;7.70;;;;;;;13.66;92.56;101497.25;5070981;28;20028;-40
2023/07/30 06:42:48;;;;;;;15.77;6.93;;;;;;;13.63;92.47;101485.03;5070921;28;20418;-43
2023/07/30 06:45:14;;;;;;;15.88;7.57;;;;;;;13.60;93.02;101495.38;5071203;28;20498;-43
2023/07/30 06:47:40;;;;;;;17.83;8.40;;;;;;;13.49;93.39;101499.53;5071017;28;20024;-42
2023/07/30 06:50:10;;;;;;;14.23;7.70;;;;;;;13.54;93.30;101499.72;5052898;28;20024;-42
2023/07/30 06:52:37;;;;;;;19.55;8.00;;;;;;;13.60;93.19;101493.53;5060029;28;20435;-43
2023/07/30 06:55:03;;;;;;;22.80;8.68;;;;;;;13.54;93.84;101496.22;5050913;28;20033;-44
2023/07/30 06:57:30;;;;;;;19.40;7.45;;;;;;;13.53;94.24;101508.84;5051327;28;20479;-42
2023/07/30 06:59:57;;;;;;;17.30;7.53;;;;;;;13.59;93.89;101499.09;5050488;28;20039;-42
2023/07/30 07:02:24;;;;;;;17.80;8.35;;;;;;;13.56;94.26;101495.00;5056972;28;20505;-43
2023/07/30 07:04:50;;;;;;;19.98;7.78;;;;;;;13.67;94.04;101494.34;5068372;28;20113;-43
2023/07/30 07:07:17;;;;;;;16.42;8.10;;;;;;;13.62;94.31;101491.47;5070588;28;20043;-43
2023/07/30 07:09:43;;;;;;;24.35;8.55;;;;;;;13.62;93.94;101496.00;5070726;28;20028;-42
2023/07/30 07:12:09;;;;;;;17.52;7.43;;;;;;;13.62;93.73;101493.31;5069389;28;20020;-42
2023/07/30 07:14:35;;;;;;;17.42;7.55;;;;;;;13.63;94.06;101492.28;5070584;28;20037;-44
2023/07/30 07:17:02;;;;;;;19.15;7.70;;;;;;;13.54;94.53;101485.47;5068855;28;20036;-43
2023/07/30 07:19:28;;;;;;;20.58;7.10;;;;;;;13.58;94.40;101482.16;5070857;28;20019;-43
2023/07/30 07:21:54;;;;;;;17.90;7.68;;;;;;;13.57;94.81;101477.81;5062346;28;20107;-42
2023/07/30 07:24:20;;;;;;;18.58;7.05;;;;;;;13.54;95.54;101493.53;5070543;28;20028;-44
2023/07/30 07:26:47;;;;;;;15.50;7.80;;;;;;;13.57;95.91;101482.38;5070643;28;20374;-42
2023/07/30 07:29:13;;;;;;;18.23;8.32;;;;;;;13.59;95.62;101486.47;5073848;28;20032;-44
2023/07/30 07:31:39;;;;;;;19.77;8.25;;;;;;;13.54;96.16;101480.06;5073950;28;20502;-42
2023/07/30 07:34:05;;;;;;;22.13;8.23;;;;;;;13.51;96.84;101485.91;5073781;28;20036;-42
2023/07/30 07:36:32;;;;;;;17.23;7.47;;;;;;;13.59;96.30;101486.47;5073696;28;20051;-43
2023/07/30 07:38:58;;;;;;;23.48;8.13;;;;;;;13.57;96.66;101479.66;5073776;28;20032;-43
2023/07/30 07:41:25;;;;;;;18.77;7.45;;;;;;;13.62;96.40;101474.50;5073860;28;20086;-42
2023/07/30 07:43:53;;;;;;;20.00;8.60;;;;;;;13.65;96.20;101468.66;5073306;28;20923;-42
2023/07/30 07:46:20;;;;;;;20.55;7.88;;;;;;;13.53;96.72;101473.88;5055942;28;20086;-42
2023/07/30 07:48:46;;;;;;;16.65;7.32;;;;;;;13.59;96.15;101464.13;5073251;28;20039;-43
2023/07/30 07:51:13;;;;;;;18.55;8.05;;;;;;;13.52;96.55;101466.03;5068222;28;20045;-44
2023/07/30 07:53:39;;;;;;;17.35;7.50;;;;;;;13.44;97.32;101467.91;5053848;28;20517;-42
2023/07/30 07:56:05;;;;;;;13.73;7.68;;;;;;;13.50;97.25;101470.78;5053570;28;20052;-43
2023/07/30 07:58:32;;;;;;;15.32;7.60;;;;;;;13.62;96.17;101467.25;5053772;28;20695;-43
2023/07/30 08:00:59;;;;;;;14.20;6.53;;;;;;;13.65;95.50;101468.66;5055475;28;20028;-42
2023/07/30 08:03:28;;;;;;;12.57;7.28;;;;;;;13.59;96.30;101467.66;5066594;28;20115;-43
2023/07/30 08:05:54;;;;;;;16.67;7.30;;;;;;;13.55;96.50;101461.06;5073026;28;20601;-42
2023/07/30 08:08:21;;;;;;;15.82;7.75;;;;;;;13.54;97.03;101459.38;5073363;28;20025;-42
2023/07/30 08:10:47;;;;;;;19.08;8.52;;;;;;;13.48;97.21;101457.53;5073066;28;20028;-42
2023/07/30 08:13:14;;;;;;;15.23;7.00;;;;;;;13.58;96.66;101451.72;5073500;28;20024;-42
2023/07/30 08:15:40;;;;;;;15.65;7.68;;;;;;;13.48;96.86;101452.16;5073365;28;20020;-42
2023/07/30 08:18:07;;;;;;;13.02;7.22;;;;;;;13.53;97.06;101451.53;5073194;28;20478;-42
2023/07/30 08:20:33;;;;;;;15.75;7.85;;;;;;;13.63;96.82;101457.31;5068509;28;20083;-42
2023/07/30 08:22:59;;;;;;;14.02;6.60;;;;;;;13.61;96.88;101451.31;5069524;28;20063;-42
2023/07/30 08:25:25;;;;;;;13.25;6.93;;;;;;;13.72;96.22;101447.97;5073096;28;20033;-42
2023/07/30 08:27:52;;;;;;;16.45;7.47;;;;;;;13.56;97.28;101453.81;5073108;28;20028;-44
2023/07/30 08:30:19;;;;;;;23.90;7.85;;;;;;;13.59;97.44;101451.50;5072863;28;20099;-42
2023/07/30 08:32:45;;;;;;;21.80;7.40;;;;;;;13.64;97.39;101453.56;5073155;28;20025;-42
2023/07/30 08:35:11;;;;;;;14.68;7.32;;;;;;;13.62;97.61;101456.50;5072641;28;20031;-43
2023/07/30 08:37:38;;;;;;;15.30;7.45;;;;;;;13.62;97.75;101451.09;5072645;28;20063;-44
2023/07/30 08:40:04;;;;;;;16.95;7.32;;;;;;;13.55;98.24;101444.06;5072142;28;20032;-43
2023/07/30 08:42:31;;;;;;;15.07;8.07;;;;;;;13.65;97.09;101449.84;5072869;28;20048;-45
2023/07/30 08:44:57;;;;;;;12.85;6.90;;;;;;;13.60;97.22;101447.81;5071249;28;20028;-42
2023/07/30 08:47:23;;;;;;;16.58;7.95;;;;;;;13.69;96.95;101451.09;5072860;28;20035;-42
2023/07/30 08:49:50;;;;;;;14.98;7.22;;;;;;;13.65;97.20;101449.84;5072688;28;20035;-42
2023/07/30 08:52:18;;;;;;;18.80;7.40;;;;;;;13.72;97.07;101442.59;5070119;28;20032;-43
2023/07/30 08:54:47;;;;;;;21.40;8.27;;;;;;;13.71;97.33;101441.78;5072552;28;20036;-43
2023/07/30 08:57:13;;;;;;;20.55;8.55;;;;;;;13.74;96.94;101441.34;5072549;28;20028;-43
2023/07/30 09:00:00;;;;;;;14.10;8.02;;;;;;;13.73;96.28;101445.06;5072406;28;20024;-43
2023/07/30 09:02:35;;;;;;;15.27;7.63;;;;;;;13.78;95.40;101443.63;5072208;28;20120;-41
2023/07/30 09:05:01;;;;;;;17.20;7.35;;;;;;;13.82;94.96;101442.13;5071709;28;20352;-42
2023/07/30 09:07:28;;;;;;;11.98;7.32;;;;;;;13.82;94.24;101437.56;5072275;28;20033;-42
2023/07/30 09:09:54;;;;;;;19.00;8.18;;;;;;;13.60;95.00;101433.50;5072083;28;20052;-41
2023/07/30 09:12:29;;;;;;;12.00;7.22;;;;;;;13.71;94.62;101436.41;5070463;28;20398;-42
2023/07/30 09:14:55;;;;;;;11.15;6.57;;;;;;;13.65;93.92;101431.84;5072124;28;20028;-45
2023/07/30 09:17:22;;;;;;;15.10;6.78;;;;;;;13.62;93.49;101424.22;5071332;28;20041;-44
2023/07/30 09:19:50;;;;;;;15.50;7.03;;;;;;;13.50;94.37;101433.16;5071914;28;20086;-41
2023/07/30 09:22:38;;;;;;;21.45;8.40;;;;;;;13.48;94.35;101423.41;5072069;28;20037;-43
2023/07/30 09:25:05;;;;;;;17.35;9.00;;;;;;;13.40;94.57;101429.03;5054110;28;20094;-42
2023/07/30 09:27:32;;;;;;;16.73;8.02;;;;;;;13.37;94.33;101410.59;5060070;28;20025;-42
2023/07/30 09:30:06;;;;;;;17.10;8.00;;;;;;;13.29;94.89;101418.91;5051857;28;20029;-43
2023/07/30 09:32:34;;;;;;;22.50;12.73;;;;;;;13.30;95.22;101407.13;5064065;28;20120;-43
2023/07/30 09:35:08;;;;;;;20.77;13.32;;;;;;;13.22;95.97;101412.72;5071837;28;20046;-42
2023/07/30 09:37:40;;;;;;;22.73;13.02;;;;;;;13.18;95.56;101411.44;5071930;28;20429;-44
2023/07/30 09:40:08;;;;;;;22.90;13.90;;;;;;;13.25;95.29;101414.97;5071364;28;20016;-43
2023/07/30 09:42:39;;;;;;;22.58;9.27;;;;;;;13.08;96.35;101416.41;5069741;28;20039;-42
2023/07/30 09:45:09;;;;;;;12.43;8.35;;;;;;;13.17;96.46;101420.56;5071946;28;20020;-42
2023/07/30 09:47:38;;;;;;;16.35;9.13;;;;;;;13.11;96.73;101407.97;5072044;28;20107;-42
2023/07/30 09:50:04;;;;;;;23.92;12.52;;;;;;;13.25;96.22;101427.59;5070593;28;20028;-42
2023/07/30 09:52:31;;;;;;;43.63;27.88;;;;;;;13.17;97.02;101416.00;5071515;28;20109;-43
2023/07/30 09:54:58;;;;;;;52.60;30.58;;;;;;;13.14;97.13;101412.91;5071212;28;20498;-42
2023/07/30 09:57:25;;;;;;;47.33;24.42;;;;;;;13.09;97.88;101413.53;5070940;28;20028;-42
2023/07/30 09:59:53;;;;;;;41.70;23.42;;;;;;;13.22;96.88;101414.59;5071372;28;20175;-43
2023/07/30 10:02:19;;;;;;;29.05;16.13;;;;;;;13.26;96.55;101416.63;5071161;28;20032;-42
2023/07/30 10:04:49;;;;;;;18.15;11.05;;;;;;;13.33;96.67;101425.53;5071347;28;20059;-42
2023/07/30 10:07:22;;;;;;;15.40;6.93;;;;;;;13.32;96.24;101417.66;5071595;28;20036;-42
2023/07/30 10:09:51;;;;;;;16.40;7.47;;;;;;;13.15;96.50;101403.78;5071399;28;20025;-42
2023/07/30 10:12:23;;;;;;;13.85;6.93;;;;;;;13.26;95.92;101413.13;5069409;28;20441;-42
2023/07/30 10:14:49;;;;;;;13.93;6.93;;;;;;;13.23;95.67;101403.63;5071206;28;20032;-41
2023/07/30 10:17:18;;;;;;;13.38;7.35;;;;;;;13.18;95.91;101404.22;5070551;28;20036;-42
2023/07/30 10:19:50;;;;;;;15.07;7.50;;;;;;;13.13;96.25;101397.81;5071434;28;20387;-43
2023/07/30 10:22:22;;;;;;;18.90;9.65;;;;;;;13.04;97.20;101407.13;5070687;28;20398;-41
2023/07/30 10:24:59;;;;;;;19.27;10.75;;;;;;;13.07;97.38;101404.84;5071581;28;20052;-42
2023/07/30 10:27:36;;;;;;;21.27;9.15;;;;;;;13.05;96.92;101401.56;5056738;28;20069;-42
2023/07/30 10:30:10;;;;;;;16.25;8.32;;;;;;;12.97;97.73;101396.38;5068667;28;20504;-43
2023/07/30 10:33:04;;;;;;;14.07;7.40;;;;;;;12.93;97.72;101401.34;5071213;28;20122;-42
2023/07/30 10:35:38;;;;;;;16.02;8.57;;;;;;;12.99;97.51;101393.47;5067663;28;20048;-42
2023/07/30 10:38:25;;;;;;;17.00;8.18;;;;;;;13.03;97.91;101400.91;5071239;28;20081;-42
2023/07/30 10:41:09;;;;;;;10.65;6.95;;;;;;;13.03;97.13;101392.03;5068769;28;20510;-43
2023/07/30 10:43:38;;;;;;;14.52;6.70;;;;;;;12.95;97.66;101399.28;5071281;28;20050;-42
2023/07/30 10:46:05;;;;;;;16.63;6.93;;;;;;;13.06;96.83;101387.06;5070410;28;20028;-42
2023/07/30 10:48:39;;;;;;;15.57;7.03;;;;;;;13.11;96.95;101392.66;5071139;28;20017;-42
2023/07/30 10:51:08;;;;;;;15.43;7.57;;;;;;;12.99;97.79;101382.72;5070459;28;20044;-42
2023/07/30 10:53:39;;;;;;;15.18;6.65;;;;;;;13.08;97.27;101382.31;5071000;28;20032;-43
2023/07/30 10:56:07;;;;;;;14.27;6.60;;;;;;;13.14;97.15;101386.84;5070732;28;20356;-42
2023/07/30 10:58:35;;;;;;;16.15;7.22;;;;;;;13.03;97.92;101374.03;5069487;28;20029;-42
2023/07/30 11:01:08;;;;;;;15.07;7.18;;;;;;;13.02;97.99;101376.94;5070212;28;20070;-42
2023/07/30 11:03:35;;;;;;;13.35;6.50;;;;;;;12.97;98.29;101379.44;5074629;28;20444;-41
2023/07/30 11:06:03;;;;;;;14.57;7.13;;;;;;;13.05;97.88;101373.84;5074714;28;20044;-42
2023/07/30 11:08:42;;;;;;;12.25;6.63;;;;;;;13.12;97.74;101377.34;5074598;28;20028;-42
2023/07/30 11:11:10;;;;;;;12.48;6.68;;;;;;;13.19;97.17;101378.16;5071682;28;20028;-42
2023/07/30 11:13:46;;;;;;;12.27;6.13;;;;;;;13.17;97.30;101380.25;5074412;28;20431;-42
2023/07/30 11:16:14;;;;;;;12.00;6.38;;;;;;;13.13;97.38;101381.69;5074699;28;20060;-42
2023/07/30 11:18:42;;;;;;;12.73;5.70;;;;;;;13.06;97.43;101381.69;5074456;28;20020;-43